Time;durP1;ratioP1;P1;durP2;ratioP2;P2;SDS_P1;SDS_P2;PMS_P1;PMS_P2;Temp;Humidity;BMP_temperature;BMP_pressure;BME280_temperature;BME280_humidity;BME280_pressure;Samples;Min_cycle;Max_cycle;Signal;HPM_P1;HPM_P2
2023/04/22 00:01:01;;;;;;;2.40;1.30;;;14.20;99.80;;;;;;5068064;28;20871;-73
2023/04/22 00:03:27;;;;;;;2.33;0.93;;;14.20;99.30;;;;;;5068851;28;20198;-72
2023/04/22 00:05:53;;;;;;;2.10;1.30;;;14.30;98.80;;;;;;5067523;28;20236;-72
2023/04/22 00:08:19;;;;;;;1.40;1.30;;;14.30;98.90;;;;;;5068812;28;20179;-72
2023/04/22 00:10:45;;;;;;;1.73;1.63;;;14.20;99.30;;;;;;5068731;28;20432;-72
2023/04/22 00:13:10;;;;;;;1.90;1.00;;;14.20;99.20;;;;;;5068293;28;20766;-73
2023/04/22 00:15:36;;;;;;;1.47;1.27;;;14.20;99.60;;;;;;5068589;28;20221;-72
2023/04/22 00:18:02;;;;;;;0.90;0.80;;;14.20;99.20;;;;;;5068566;28;20179;-73
2023/04/22 00:20:28;;;;;;;3.10;1.47;;;14.10;99.60;;;;;;5068865;28;20185;-72
2023/04/22 00:22:53;;;;;;;1.27;1.07;;;14.00;99.90;;;;;;5068915;28;20183;-73
2023/04/22 00:25:19;;;;;;;1.07;0.97;;;14.00;99.80;;;;;;5069077;28;20421;-72
2023/04/22 00:27:45;;;;;;;2.00;1.07;;;14.00;99.70;;;;;;5084775;28;20243;-73
2023/04/22 00:30:11;;;;;;;1.10;1.00;;;14.10;98.10;;;;;;5074039;28;20274;-72
2023/04/22 00:32:37;;;;;;;1.23;1.13;;;14.10;99.00;;;;;;5073758;28;20213;-72
2023/04/22 00:35:03;;;;;;;1.93;1.20;;;14.10;99.20;;;;;;5070375;28;20468;-72
2023/04/22 00:37:29;;;;;;;2.60;0.90;;;14.10;97.90;;;;;;5069226;28;20429;-72
2023/04/22 00:39:56;;;;;;;1.37;1.27;;;14.10;98.20;;;;;;5068637;28;20436;-72
2023/04/22 00:42:22;;;;;;;2.17;1.33;;;14.10;97.80;;;;;;5083926;28;20979;-72
2023/04/22 00:44:49;;;;;;;1.67;1.53;;;14.10;98.00;;;;;;5068609;28;20468;-73
2023/04/22 00:47:16;;;;;;;1.20;1.10;;;14.10;97.60;;;;;;5068601;28;20418;-73
2023/04/22 00:49:42;;;;;;;1.07;0.97;;;14.20;97.20;;;;;;5068798;28;20515;-73
2023/04/22 00:52:07;;;;;;;1.30;1.07;;;14.20;97.60;;;;;;5067357;28;20468;-73
2023/04/22 00:54:35;;;;;;;1.60;1.50;;;14.10;98.40;;;;;;5068604;28;20452;-72
2023/04/22 00:57:02;;;;;;;1.37;1.27;;;14.10;97.70;;;;;;5068594;28;20182;-72
2023/04/22 00:59:28;;;;;;;0.80;0.80;;;14.10;98.10;;;;;;5068174;28;20427;-73
2023/04/22 01:01:55;;;;;;;2.13;1.27;;;14.00;98.10;;;;;;5068185;28;20413;-72
2023/04/22 01:04:21;;;;;;;3.00;1.33;;;14.00;98.00;;;;;;5070353;28;20255;-72
2023/04/22 01:06:49;;;;;;;1.20;1.10;;;14.10;98.00;;;;;;5071837;28;20447;-72
2023/04/22 01:09:17;;;;;;;2.67;1.30;;;14.00;98.30;;;;;;5087170;28;20939;-73
2023/04/22 01:11:43;;;;;;;1.10;1.00;;;14.00;97.70;;;;;;5071494;28;20424;-73
2023/04/22 01:14:09;;;;;;;1.20;1.10;;;14.00;98.30;;;;;;5071278;28;21244;-72
2023/04/22 01:16:37;;;;;;;1.30;1.20;;;14.00;99.30;;;;;;5071494;28;20415;-72
2023/04/22 01:19:07;;;;;;;1.53;1.33;;;13.90;99.10;;;;;;5071368;28;20179;-72
2023/04/22 01:21:34;;;;;;;1.63;1.10;;;13.90;99.80;;;;;;5071308;28;20421;-72
2023/04/22 01:24:00;;;;;;;2.53;1.63;;;13.80;99.90;;;;;;5071214;28;20536;-73
2023/04/22 01:26:26;;;;;;;3.93;1.40;;;13.70;99.90;;;;;;5071390;28;20409;-73
2023/04/22 01:28:52;;;;;;;1.40;1.00;;;13.70;99.90;;;;;;5071224;28;20425;-73
2023/04/22 01:31:18;;;;;;;2.47;1.03;;;13.70;99.90;;;;;;5071555;28;20980;-72
2023/04/22 01:33:44;;;;;;;2.30;1.13;;;13.60;99.90;;;;;;5071005;28;20225;-73
2023/04/22 01:36:11;;;;;;;1.77;1.63;;;13.50;99.90;;;;;;5071204;28;20754;-72
2023/04/22 01:38:36;;;;;;;1.43;1.33;;;13.50;99.90;;;;;;5071125;28;20414;-73
2023/04/22 01:41:02;;;;;;;2.00;1.40;;;13.50;99.90;;;;;;5070961;28;21048;-73
2023/04/22 01:43:29;;;;;;;2.23;1.90;;;13.50;99.90;;;;;;5070770;28;20242;-72
2023/04/22 01:45:56;;;;;;;1.80;1.70;;;13.40;99.90;;;;;;5086350;28;20183;-73
2023/04/22 01:48:22;;;;;;;3.30;1.47;;;13.40;99.90;;;;;;5071070;28;20424;-72
2023/04/22 01:50:47;;;;;;;1.77;1.53;;;13.30;99.90;;;;;;5069575;28;20417;-71
2023/04/22 01:53:13;;;;;;;2.77;1.33;;;13.20;99.90;;;;;;5070783;28;20219;-74
2023/04/22 01:55:38;;;;;;;2.07;1.40;;;13.10;99.90;;;;;;5070964;28;20190;-72
2023/04/22 01:58:04;;;;;;;3.63;1.90;;;13.00;99.90;;;;;;5070691;28;20182;-73
2023/04/22 02:00:30;;;;;;;1.97;1.63;;;13.00;99.90;;;;;;5069001;28;20725;-73
2023/04/22 02:02:56;;;;;;;1.70;1.60;;;12.90;99.90;;;;;;5070535;28;20274;-73
2023/04/22 02:05:22;;;;;;;1.60;1.50;;;12.70;99.90;;;;;;5069039;28;20499;-73
2023/04/22 02:07:52;;;;;;;2.90;2.13;;;12.80;99.90;;;;;;5070592;28;20197;-72
2023/04/22 02:10:18;;;;;;;2.20;2.10;;;12.60;99.90;;;;;;5086156;28;20566;-73
2023/04/22 02:12:43;;;;;;;6.60;2.80;;;12.50;99.90;;;;;;5072051;28;20459;-73
2023/04/22 02:15:09;;;;;;;5.43;3.50;;;12.50;99.90;;;;;;5072065;28;20651;-72
2023/04/22 02:17:35;;;;;;;5.10;3.97;;;12.40;99.90;;;;;;5071753;28;20799;-73
2023/04/22 02:20:03;;;;;;;7.90;4.30;;;12.30;99.90;;;;;;5072564;28;20420;-73
2023/04/22 02:22:29;;;;;;;5.23;3.97;;;12.20;99.90;;;;;;5070725;28;20225;-73
2023/04/22 02:24:55;;;;;;;6.00;4.40;;;12.10;99.90;;;;;;5070224;28;20439;-72
2023/04/22 02:27:20;;;;;;;4.20;3.80;;;12.10;99.90;;;;;;5070085;28;20432;-72
2023/04/22 02:29:47;;;;;;;6.37;4.67;;;12.00;99.90;;;;;;5070291;28;20182;-72
2023/04/22 02:32:13;;;;;;;4.27;3.57;;;11.90;99.90;;;;;;5070074;28;20821;-72
2023/04/22 02:34:38;;;;;;;4.40;3.50;;;11.90;99.90;;;;;;5069814;28;20444;-72
2023/04/22 02:37:04;;;;;;;5.23;3.43;;;11.80;99.90;;;;;;5085411;28;20467;-73
2023/04/22 02:39:30;;;;;;;3.57;3.10;;;11.90;99.90;;;;;;5068662;28;20187;-73
2023/04/22 02:41:55;;;;;;;4.37;3.97;;;11.70;99.90;;;;;;5069995;28;20182;-72
2023/04/22 02:44:21;;;;;;;4.30;3.90;;;11.70;99.90;;;;;;5069922;28;20197;-73
2023/04/22 02:46:47;;;;;;;5.73;3.27;;;11.60;99.90;;;;;;5069683;28;20217;-72
2023/04/22 02:49:12;;;;;;;4.23;3.30;;;11.60;99.90;;;;;;5070222;28;20683;-71
2023/04/22 02:51:38;;;;;;;3.07;2.77;;;11.50;99.90;;;;;;5068365;28;20568;-75
2023/04/22 02:54:04;;;;;;;4.63;2.80;;;11.40;99.90;;;;;;5068259;28;20662;-73
2023/04/22 02:56:30;;;;;;;8.00;3.00;;;11.40;99.90;;;;;;5069512;28;20181;-72
2023/04/22 02:58:56;;;;;;;3.43;3.10;;;11.40;99.90;;;;;;5068135;28;20216;-72
2023/04/22 03:01:22;;;;;;;4.00;3.13;;;11.30;99.90;;;;;;5068144;28;20448;-72
2023/04/22 03:03:47;;;;;;;6.60;4.03;;;11.30;99.90;;;;;;5069205;28;20247;-72
2023/04/22 03:06:13;;;;;;;5.83;4.13;;;11.30;99.90;;;;;;5067816;28;20191;-73
2023/04/22 03:08:39;;;;;;;5.73;4.77;;;11.30;99.90;;;;;;5069444;28;20184;-72
2023/04/22 03:11:04;;;;;;;5.20;4.40;;;11.30;99.90;;;;;;5069575;28;20648;-72
2023/04/22 03:13:30;;;;;;;4.80;3.20;;;11.20;99.90;;;;;;5069430;28;20217;-72
2023/04/22 03:15:55;;;;;;;4.30;3.77;;;11.00;99.90;;;;;;5051548;28;20180;-72
2023/04/22 03:18:21;;;;;;;8.27;3.77;;;10.70;99.90;;;;;;5069574;28;20627;-72
2023/04/22 03:20:48;;;;;;;4.97;3.57;;;10.50;99.90;;;;;;5068566;28;20179;-72
2023/04/22 03:23:13;;;;;;;4.83;4.20;;;10.40;99.90;;;;;;5069771;28;20270;-72
2023/04/22 03:25:39;;;;;;;5.07;3.80;;;10.30;99.90;;;;;;5068943;28;20517;-73
2023/04/22 03:28:05;;;;;;;6.20;3.97;;;10.40;99.90;;;;;;5068272;28;20194;-73
2023/04/22 03:30:31;;;;;;;5.80;3.73;;;10.40;99.90;;;;;;5069586;28;20418;-73
2023/04/22 03:32:57;;;;;;;4.03;3.37;;;10.40;99.90;;;;;;5069322;28;20476;-73
2023/04/22 03:35:23;;;;;;;4.50;3.07;;;10.40;99.90;;;;;;5051100;28;20193;-72
2023/04/22 03:37:48;;;;;;;3.30;2.90;;;10.30;99.90;;;;;;5084290;28;20731;-72
2023/04/22 03:40:14;;;;;;;3.90;3.10;;;10.20;99.90;;;;;;5067464;28;20193;-72
2023/04/22 03:42:39;;;;;;;3.87;3.47;;;10.20;99.90;;;;;;5067482;28;20231;-72
2023/04/22 03:45:06;;;;;;;5.40;2.67;;;10.20;99.90;;;;;;5068862;28;20205;-72
2023/04/22 03:47:31;;;;;;;3.07;2.80;;;10.20;99.90;;;;;;5068815;28;20238;-73
2023/04/22 03:49:57;;;;;;;2.60;2.30;;;10.10;99.90;;;;;;5068867;28;20430;-72
2023/04/22 03:52:22;;;;;;;2.90;2.60;;;10.00;99.90;;;;;;5067492;28;20242;-72
2023/04/22 03:54:48;;;;;;;4.30;3.20;;;10.00;99.90;;;;;;5067111;28;20206;-73
2023/04/22 03:57:14;;;;;;;6.33;2.53;;;10.00;99.90;;;;;;5067038;28;20186;-73
2023/04/22 03:59:39;;;;;;;6.73;4.03;;;9.90;99.90;;;;;;5067133;28;20218;-73
2023/04/22 04:02:06;;;;;;;3.27;2.97;;;9.90;99.90;;;;;;5067118;28;21275;-72
2023/04/22 04:04:33;;;;;;;3.53;3.20;;;9.90;99.90;;;;;;5068552;28;20252;-73
2023/04/22 04:06:59;;;;;;;3.20;2.90;;;9.90;99.90;;;;;;5067193;28;20418;-72
2023/04/22 04:09:25;;;;;;;3.83;3.23;;;9.90;99.90;;;;;;5068545;28;20513;-72
2023/04/22 04:11:51;;;;;;;3.90;3.33;;;9.90;99.90;;;;;;5067060;28;20873;-72
2023/04/22 04:14:16;;;;;;;5.57;2.80;;;9.90;99.90;;;;;;5068435;28;20438;-72
2023/04/22 04:16:43;;;;;;;3.10;2.80;;;9.90;99.90;;;;;;5068335;28;20188;-73
2023/04/22 04:19:09;;;;;;;3.83;3.50;;;9.90;99.90;;;;;;5068405;28;20552;-72
2023/04/22 04:21:35;;;;;;;4.57;3.17;;;9.90;99.90;;;;;;5068312;28;20420;-73
2023/04/22 04:24:01;;;;;;;4.80;3.70;;;9.90;99.90;;;;;;5068455;28;20579;-72
2023/04/22 04:26:27;;;;;;;6.83;2.80;;;9.90;99.90;;;;;;5068216;28;20419;-72
2023/04/22 04:28:54;;;;;;;3.17;2.60;;;10.10;99.90;;;;;;5066838;28;20474;-71
2023/04/22 04:31:20;;;;;;;3.20;2.33;;;10.10;99.90;;;;;;5068311;28;20189;-74
2023/04/22 04:33:46;;;;;;;8.90;2.67;;;10.10;99.90;;;;;;5066890;28;20465;-72
2023/04/22 04:36:12;;;;;;;3.17;2.13;;;10.20;99.90;;;;;;5068347;28;20536;-73
2023/04/22 04:38:38;;;;;;;2.17;2.00;;;10.20;99.90;;;;;;5069794;28;20541;-72
2023/04/22 04:41:03;;;;;;;4.27;2.80;;;10.30;99.90;;;;;;5071745;28;21018;-72
2023/04/22 04:43:29;;;;;;;4.23;2.27;;;10.40;99.90;;;;;;5071981;28;20448;-73
2023/04/22 04:45:55;;;;;;;5.60;1.80;;;10.40;99.90;;;;;;5071844;28;20424;-73
2023/04/22 04:48:23;;;;;;;4.10;1.67;;;10.50;99.90;;;;;;5087388;28;20219;-73
2023/04/22 04:50:52;;;;;;;2.27;1.40;;;10.90;99.90;;;;;;5070509;28;20177;-72
2023/04/22 04:53:19;;;;;;;3.13;1.63;;;11.10;99.90;;;;;;5071776;28;21139;-73
2023/04/22 04:55:44;;;;;;;2.80;1.40;;;11.30;99.90;;;;;;5071747;28;20488;-73
2023/04/22 04:58:10;;;;;;;1.83;1.53;;;11.40;99.90;;;;;;5071711;28;20590;-73
2023/04/22 05:00:36;;;;;;;1.83;1.67;;;11.50;99.90;;;;;;5072071;28;20184;-72
2023/04/22 05:03:01;;;;;;;2.50;1.30;;;11.50;99.90;;;;;;5071927;28;20181;-73
2023/04/22 05:05:27;;;;;;;2.17;1.97;;;11.50;99.90;;;;;;5071772;28;20188;-72
2023/04/22 05:07:53;;;;;;;2.57;2.00;;;11.50;99.90;;;;;;5071804;28;20187;-72
2023/04/22 05:10:20;;;;;;;3.77;2.60;;;11.50;99.90;;;;;;5071738;28;20797;-71
2023/04/22 05:12:46;;;;;;;3.80;3.50;;;11.30;99.90;;;;;;5086924;28;20208;-72
2023/04/22 05:15:13;;;;;;;4.50;3.97;;;10.90;99.90;;;;;;5071557;28;20436;-72
2023/04/22 05:17:39;;;;;;;7.13;4.50;;;10.80;99.90;;;;;;5071495;28;20425;-72
2023/04/22 05:20:05;;;;;;;8.30;4.47;;;10.70;99.90;;;;;;5071486;28;20410;-72
2023/04/22 05:22:31;;;;;;;5.60;4.27;;;10.60;99.90;;;;;;5071510;28;20482;-72
2023/04/22 05:24:56;;;;;;;8.13;4.83;;;10.60;99.90;;;;;;5070453;28;20440;-72
2023/04/22 05:27:22;;;;;;;5.57;4.00;;;10.60;99.90;;;;;;5070513;28;20815;-72
2023/04/22 05:29:47;;;;;;;4.70;4.10;;;10.60;99.90;;;;;;5071872;28;20228;-73
2023/04/22 05:32:13;;;;;;;4.47;4.00;;;10.60;99.90;;;;;;5071888;28;20213;-73
2023/04/22 05:34:39;;;;;;;6.07;4.50;;;10.60;99.90;;;;;;5070435;28;20204;-72
2023/04/22 05:37:05;;;;;;;8.23;4.27;;;10.70;99.90;;;;;;5070220;28;20178;-72
2023/04/22 05:39:31;;;;;;;6.03;4.40;;;10.70;99.90;;;;;;5071301;28;20427;-72
2023/04/22 05:41:56;;;;;;;4.30;3.90;;;10.70;99.90;;;;;;5071388;28;20184;-72
2023/04/22 05:44:22;;;;;;;5.03;4.23;;;10.70;99.90;;;;;;5071467;28;20206;-72
2023/04/22 05:46:47;;;;;;;4.13;3.60;;;10.70;99.90;;;;;;5071089;28;20192;-72
2023/04/22 05:49:13;;;;;;;5.00;3.57;;;10.80;99.90;;;;;;5068980;28;20175;-70
2023/04/22 05:51:39;;;;;;;6.57;4.27;;;10.80;99.90;;;;;;5071018;28;20184;-71
2023/04/22 05:54:04;;;;;;;4.27;3.90;;;10.90;99.90;;;;;;5070584;28;20216;-72
2023/04/22 05:56:30;;;;;;;4.03;3.63;;;11.00;99.90;;;;;;5070733;28;20624;-73
2023/04/22 05:58:56;;;;;;;8.13;3.53;;;11.10;99.90;;;;;;5052808;28;20190;-72
2023/04/22 06:01:23;;;;;;;4.70;3.90;;;11.20;99.90;;;;;;5069177;28;20207;-72
2023/04/22 06:03:49;;;;;;;8.53;4.17;;;11.30;99.90;;;;;;5070340;28;20249;-72
2023/04/22 06:06:15;;;;;;;3.90;3.50;;;11.40;99.90;;;;;;5070504;28;20412;-72
2023/04/22 06:08:41;;;;;;;4.40;3.60;;;11.50;99.90;;;;;;5070569;28;21157;-71
2023/04/22 06:11:06;;;;;;;5.70;3.60;;;11.70;99.90;;;;;;5070312;28;20189;-72
2023/04/22 06:13:32;;;;;;;11.30;3.63;;;11.90;99.90;;;;;;5070237;28;20215;-72
2023/04/22 06:15:58;;;;;;;9.10;3.87;;;12.10;99.90;;;;;;5070282;28;20302;-71
2023/04/22 06:18:23;;;;;;;3.73;3.07;;;12.20;99.90;;;;;;5070190;28;20269;-71
2023/04/22 06:20:50;;;;;;;6.63;3.97;;;12.30;99.90;;;;;;5070321;28;20182;-70
2023/04/22 06:23:16;;;;;;;4.10;3.67;;;12.60;99.90;;;;;;5070319;28;20186;-71
2023/04/22 06:25:42;;;;;;;5.30;3.77;;;12.90;99.90;;;;;;5070067;28;20508;-71
2023/04/22 06:28:07;;;;;;;4.83;3.60;;;13.20;99.90;;;;;;5068690;28;20733;-71
2023/04/22 06:30:33;;;;;;;4.43;2.90;;;13.40;99.90;;;;;;5069920;28;20436;-72
2023/04/22 06:32:59;;;;;;;3.43;3.07;;;13.60;99.90;;;;;;5070027;28;20213;-71
2023/04/22 06:35:25;;;;;;;3.93;2.90;;;13.70;99.90;;;;;;5068593;28;20186;-70
2023/04/22 06:37:50;;;;;;;6.30;3.40;;;13.80;99.90;;;;;;5085213;28;20183;-70
2023/04/22 06:40:16;;;;;;;5.03;3.53;;;14.00;99.90;;;;;;5069751;28;20444;-69
2023/04/22 06:42:41;;;;;;;3.80;3.50;;;14.00;99.90;;;;;;5068542;28;20195;-71
2023/04/22 06:45:11;;;;;;;6.00;3.77;;;14.10;99.90;;;;;;5069660;28;20210;-72
2023/04/22 06:47:37;;;;;;;3.83;3.43;;;14.30;99.90;;;;;;5069721;28;20179;-72
2023/04/22 06:50:03;;;;;;;4.50;3.20;;;14.40;99.90;;;;;;5069888;28;20536;-72
2023/04/22 06:52:29;;;;;;;4.30;3.70;;;14.40;99.90;;;;;;5069426;28;20560;-72
2023/04/22 06:54:54;;;;;;;4.40;4.00;;;14.50;99.90;;;;;;5069800;28;20459;-72
2023/04/22 06:57:20;;;;;;;4.37;3.57;;;14.60;99.90;;;;;;5069707;28;20179;-73
2023/04/22 06:59:45;;;;;;;5.07;3.80;;;14.50;99.90;;;;;;5069315;28;20191;-71
2023/04/22 07:02:11;;;;;;;3.47;2.90;;;14.70;99.90;;;;;;5071977;28;20563;-71
2023/04/22 07:04:36;;;;;;;3.43;3.07;;;14.60;99.90;;;;;;5071512;28;20280;-71
2023/04/22 07:07:02;;;;;;;4.07;3.10;;;14.60;99.90;;;;;;5068507;28;20209;-72
2023/04/22 07:09:28;;;;;;;3.90;2.93;;;14.70;99.90;;;;;;5067317;28;20184;-71
2023/04/22 07:11:53;;;;;;;4.40;2.43;;;14.70;99.90;;;;;;5066777;28;20191;-71
2023/04/22 07:14:19;;;;;;;3.60;2.40;;;14.70;99.90;;;;;;5067883;28;20210;-72
2023/04/22 07:16:45;;;;;;;6.30;3.77;;;14.80;99.90;;;;;;5066500;28;20187;-72
2023/04/22 07:19:11;;;;;;;5.87;3.33;;;14.90;99.90;;;;;;5068065;28;20279;-71
2023/04/22 07:21:37;;;;;;;3.80;3.30;;;15.00;99.90;;;;;;5067972;28;20581;-71
2023/04/22 07:24:02;;;;;;;4.80;3.63;;;15.00;99.90;;;;;;5066591;28;20770;-72
2023/04/22 07:26:30;;;;;;;5.33;3.20;;;15.00;99.90;;;;;;5068172;28;20198;-71
2023/04/22 07:28:56;;;;;;;3.87;2.90;;;15.10;99.90;;;;;;5067186;28;20202;-71
2023/04/22 07:31:21;;;;;;;5.30;3.23;;;15.20;99.90;;;;;;5068544;28;20425;-71
2023/04/22 07:33:47;;;;;;;3.27;2.97;;;15.30;99.90;;;;;;5067102;28;20357;-73
2023/04/22 07:36:13;;;;;;;11.87;2.97;;;15.40;99.90;;;;;;5068677;28;20757;-72
2023/04/22 07:38:38;;;;;;;2.83;2.53;;;15.50;99.90;;;;;;5068206;28;20192;-72
2023/04/22 07:41:04;;;;;;;3.10;2.83;;;15.50;99.90;;;;;;5050326;28;20207;-71
2023/04/22 07:43:30;;;;;;;3.00;2.70;;;15.50;99.90;;;;;;5068155;28;20206;-72
2023/04/22 07:45:55;;;;;;;3.20;2.53;;;15.50;99.90;;;;;;5068585;28;20188;-71
2023/04/22 07:48:21;;;;;;;3.17;2.60;;;15.60;99.90;;;;;;5066663;28;20748;-71
2023/04/22 07:50:47;;;;;;;3.67;3.27;;;15.70;99.90;;;;;;5067964;28;20290;-72
2023/04/22 07:53:14;;;;;;;2.90;2.47;;;15.80;99.90;;;;;;5067813;28;20466;-72
2023/04/22 07:55:40;;;;;;;5.20;2.37;;;15.80;99.90;;;;;;5066239;28;20715;-72
2023/04/22 07:58:06;;;;;;;3.17;2.70;;;15.90;99.90;;;;;;5068031;28;20422;-72
2023/04/22 08:00:34;;;;;;;5.07;2.60;;;15.90;99.90;;;;;;5066607;28;20196;-72
2023/04/22 08:03:00;;;;;;;3.73;2.80;;;15.90;99.90;;;;;;5067988;28;21000;-71
2023/04/22 08:05:25;;;;;;;2.70;2.27;;;15.90;99.90;;;;;;5067891;28;20427;-71
2023/04/22 08:07:51;;;;;;;4.30;2.77;;;16.00;99.90;;;;;;5067791;28;20424;-72
2023/04/22 08:10:16;;;;;;;3.93;2.90;;;16.10;99.90;;;;;;5067675;28;20212;-71
2023/04/22 08:12:42;;;;;;;2.77;2.20;;;16.20;99.90;;;;;;5069410;28;20211;-72
2023/04/22 08:15:08;;;;;;;3.50;2.70;;;16.20;99.90;;;;;;5072015;28;20211;-71
2023/04/22 08:17:34;;;;;;;2.57;2.37;;;16.50;99.90;;;;;;5070357;28;20180;-71
2023/04/22 08:19:59;;;;;;;2.83;2.07;;;16.70;99.90;;;;;;5070377;28;20426;-71
2023/04/22 08:22:26;;;;;;;5.70;2.63;;;17.00;99.90;;;;;;5071726;28;20193;-72
2023/04/22 08:24:52;;;;;;;2.90;2.43;;;17.30;99.90;;;;;;5071473;28;20212;-70
2023/04/22 08:27:18;;;;;;;3.87;2.10;;;17.60;99.90;;;;;;5071371;28;20423;-72
2023/04/22 08:29:43;;;;;;;5.13;3.10;;;17.70;99.90;;;;;;5071564;28;20684;-72
2023/04/22 08:32:09;;;;;;;3.43;2.70;;;17.80;99.90;;;;;;5071619;28;20515;-69
2023/04/22 08:34:35;;;;;;;5.23;3.00;;;17.80;99.90;;;;;;5071764;28;20200;-71
2023/04/22 08:37:01;;;;;;;2.90;2.40;;;17.80;99.90;;;;;;5071577;28;20554;-72
2023/04/22 08:39:27;;;;;;;5.77;2.97;;;17.80;99.90;;;;;;5072263;28;20306;-72
2023/04/22 08:41:54;;;;;;;3.53;2.77;;;17.90;99.90;;;;;;5070066;28;20987;-71
2023/04/22 08:44:21;;;;;;;4.60;3.23;;;18.10;99.90;;;;;;5072604;28;20208;-71
2023/04/22 08:46:47;;;;;;;8.50;3.57;;;18.30;99.90;;;;;;5070994;28;20450;-70
2023/04/22 08:49:17;;;;;;;5.87;3.13;;;18.50;99.90;;;;;;5071297;28;20460;-70
2023/04/22 08:51:44;;;;;;;8.43;3.13;;;18.70;99.90;;;;;;5071423;28;20531;-71
2023/04/22 08:54:10;;;;;;;5.10;3.97;;;18.90;99.90;;;;;;5070849;28;20573;-71
2023/04/22 08:56:41;;;;;;;6.50;3.70;;;19.00;99.90;;;;;;5070929;28;20418;-71
2023/04/22 08:59:10;;;;;;;4.27;3.73;;;19.30;99.90;;;;;;5070596;28;20447;-71
2023/04/22 09:01:38;;;;;;;6.20;3.60;;;19.40;99.90;;;;;;5069332;28;21255;-71
2023/04/22 09:04:05;;;;;;;5.53;3.50;;;19.80;99.90;;;;;;5070543;28;20446;-70
2023/04/22 09:06:32;;;;;;;4.43;4.03;;;20.20;99.20;;;;;;5070427;28;21075;-72
2023/04/22 09:08:58;;;;;;;4.23;3.40;;;20.50;99.00;;;;;;5070724;28;20524;-73
2023/04/22 09:11:28;;;;;;;5.40;3.80;;;20.70;97.50;;;;;;5070357;28;20439;-73
2023/04/22 09:13:54;;;;;;;3.77;3.40;;;21.10;97.80;;;;;;5068489;28;20469;-72
2023/04/22 09:16:20;;;;;;;6.80;3.70;;;21.50;96.60;;;;;;5068850;28;21382;-72
2023/04/22 09:18:45;;;;;;;5.73;3.43;;;21.80;94.60;;;;;;5070107;28;20647;-72
2023/04/22 09:21:11;;;;;;;5.20;3.50;;;22.10;92.10;;;;;;5068442;28;20272;-72
2023/04/22 09:23:46;;;;;;;2.93;2.73;;;22.50;91.50;;;;;;5067071;28;20218;-72
2023/04/22 09:26:11;;;;;;;6.67;3.93;;;22.80;90.70;;;;;;5069761;28;20187;-72
2023/04/22 09:28:37;;;;;;;4.70;3.70;;;23.00;90.30;;;;;;5069773;28;20421;-72
2023/04/22 09:31:02;;;;;;;7.77;3.87;;;23.30;89.10;;;;;;5068188;28;20288;-71
2023/04/22 09:33:30;;;;;;;4.00;3.20;;;23.60;88.30;;;;;;5069529;28;20217;-72
2023/04/22 09:35:56;;;;;;;5.37;3.80;;;23.70;88.40;;;;;;5069783;28;20710;-72
2023/04/22 09:38:21;;;;;;;5.97;3.70;;;23.50;85.20;;;;;;5068123;28;20580;-71
2023/04/22 09:40:47;;;;;;;3.33;2.73;;;23.40;85.80;;;;;;5068071;28;20206;-72
2023/04/22 09:43:17;;;;;;;5.03;3.07;;;23.20;85.80;;;;;;5069619;28;20198;-72
2023/04/22 09:45:44;;;;;;;4.10;2.80;;;23.00;85.80;;;;;;5069429;28;20210;-71
2023/04/22 09:48:15;;;;;;;3.43;3.03;;;22.90;85.30;;;;;;5068001;28;20425;-71
2023/04/22 09:50:47;;;;;;;13.30;5.00;;;23.20;87.50;;;;;;5069515;28;20546;-72
2023/04/22 09:53:15;;;;;;;5.23;3.03;;;23.30;86.50;;;;;;5069379;28;20538;-72
2023/04/22 09:55:43;;;;;;;12.63;6.47;;;23.70;86.20;;;;;;5067769;28;20429;-73
2023/04/22 09:58:14;;;;;;;15.77;6.73;;;23.80;83.30;;;;;;5069414;28;20424;-73
2023/04/22 10:00:47;;;;;;;5.90;2.93;;;24.10;80.00;;;;;;5069260;28;20475;-71
2023/04/22 10:03:13;;;;;;;2.93;2.73;;;24.50;78.20;;;;;;5067476;28;20445;-72
2023/04/22 10:05:40;;;;;;;11.13;5.80;;;24.50;74.90;;;;;;5069124;28;20424;-71
2023/04/22 10:08:09;;;;;;;3.67;3.00;;;25.10;76.20;;;;;;5069567;28;20422;-70
2023/04/22 10:10:36;;;;;;;4.80;2.67;;;25.20;74.60;;;;;;5069891;28;20419;-72
2023/04/22 10:13:05;;;;;;;2.87;2.57;;;25.60;76.60;;;;;;5068253;28;20460;-72
2023/04/22 10:15:33;;;;;;;2.90;2.60;;;25.60;74.40;;;;;;5069581;28;20422;-72
2023/04/22 10:18:01;;;;;;;3.13;2.30;;;25.40;71.20;;;;;;5069558;28;20484;-73
2023/04/22 10:20:28;;;;;;;5.17;2.73;;;25.50;68.90;;;;;;5067905;28;20448;-72
2023/04/22 10:22:55;;;;;;;3.40;2.73;;;26.00;69.90;;;;;;5068909;28;20478;-72
2023/04/22 10:25:25;;;;;;;2.40;2.20;;;26.30;70.20;;;;;;5068962;28;20484;-72
2023/04/22 10:28:02;;;;;;;5.80;2.83;;;26.70;70.20;;;;;;5068863;28;20453;-72
2023/04/22 10:30:30;;;;;;;4.30;2.30;;;26.60;66.30;;;;;;5084461;28;20474;-72
2023/04/22 10:33:15;;;;;;;3.10;2.40;;;26.60;67.20;;;;;;5067441;28;20469;-72
2023/04/22 10:36:19;;;;;;;4.60;2.53;;;26.70;66.70;;;;;;5067309;28;20490;-72
2023/04/22 10:38:53;;;;;;;3.47;2.03;;;27.00;64.00;;;;;;5068766;28;20454;-72
2023/04/22 10:41:32;;;;;;;2.83;2.63;;;27.30;66.10;;;;;;5067266;28;20455;-72
2023/04/22 10:44:00;;;;;;;2.73;2.53;;;27.20;61.80;;;;;;5067208;28;20440;-72
2023/04/22 10:46:51;;;;;;;3.43;2.40;;;27.00;61.60;;;;;;5083778;28;20417;-72
2023/04/22 10:49:22;;;;;;;7.27;2.90;;;26.80;60.90;;;;;;5068955;28;20427;-72
2023/04/22 10:51:53;;;;;;;2.67;2.43;;;26.80;62.10;;;;;;5069335;28;20455;-72
2023/04/22 10:54:25;;;;;;;5.20;2.70;;;27.00;61.10;;;;;;5068260;28;20977;-71
2023/04/22 10:57:03;;;;;;;3.33;2.43;;;27.00;62.50;;;;;;5068250;28;20831;-72
2023/04/22 10:59:30;;;;;;;5.03;2.33;;;27.20;61.00;;;;;;5068063;28;20414;-72
2023/04/22 11:02:05;;;;;;;3.40;2.10;;;27.10;59.90;;;;;;5068132;28;20426;-72
2023/04/22 11:04:32;;;;;;;4.47;2.43;;;26.90;55.30;;;;;;5068117;28;20993;-73
2023/04/22 11:07:35;;;;;;;4.27;1.90;;;26.60;56.80;;;;;;5068253;28;20500;-73
2023/04/22 11:10:14;;;;;;;4.50;2.50;;;26.50;56.90;;;;;;5083365;28;20428;-72
2023/04/22 11:12:43;;;;;;;4.90;2.30;;;26.40;57.00;;;;;;5067877;28;20468;-72
2023/04/22 11:15:16;;;;;;;5.93;3.47;;;26.40;54.40;;;;;;5067846;28;20447;-71
2023/04/22 11:17:44;;;;;;;7.60;2.77;;;26.50;56.30;;;;;;5068071;28;20975;-71
2023/04/22 11:20:11;;;;;;;3.80;1.97;;;26.50;54.50;;;;;;5049516;28;20429;-72
2023/04/22 11:22:41;;;;;;;2.00;1.80;;;26.20;55.80;;;;;;5066328;28;21079;-71
2023/04/22 11:25:10;;;;;;;3.40;2.53;;;25.80;52.90;;;;;;5067532;28;20800;-73
2023/04/22 11:27:36;;;;;;;4.27;1.87;;;25.70;54.30;;;;;;5067384;28;20421;-73
2023/04/22 11:30:07;;;;;;;2.53;2.33;;;26.10;55.70;;;;;;5067589;28;20424;-72
2023/04/22 11:32:35;;;;;;;2.43;2.13;;;26.00;55.50;;;;;;5067438;28;20453;-73
2023/04/22 11:35:07;;;;;;;2.67;2.00;;;25.90;55.50;;;;;;5067520;28;20474;-72
2023/04/22 11:37:40;;;;;;;8.40;2.77;;;25.60;54.90;;;;;;5067406;28;20477;-72
2023/04/22 11:40:10;;;;;;;4.60;1.73;;;25.50;56.00;;;;;;5067192;28;20432;-72
2023/04/22 11:42:39;;;;;;;2.60;1.73;;;25.30;54.30;;;;;;5067312;28;20423;-72
2023/04/22 11:45:06;;;;;;;3.47;1.87;;;25.00;53.00;;;;;;5066062;28;20440;-73
2023/04/22 11:47:33;;;;;;;11.13;2.20;;;24.80;54.00;;;;;;5066720;28;20424;-72
2023/04/22 11:50:12;;;;;;;4.47;2.47;;;24.50;53.90;;;;;;5065747;28;20444;-72
2023/04/22 11:52:50;;;;;;;2.87;1.30;;;24.40;53.50;;;;;;5067259;28;20459;-72
2023/04/22 11:55:34;;;;;;;2.93;2.00;;;24.30;54.40;;;;;;5082362;28;20586;-71
2023/04/22 11:58:08;;;;;;;2.07;1.47;;;24.20;54.30;;;;;;5066922;28;20409;-72
2023/04/22 12:00:35;;;;;;;4.43;2.13;;;24.10;53.80;;;;;;5067082;28;20826;-73
2023/04/22 12:03:07;;;;;;;2.60;1.60;;;24.40;55.10;;;;;;5068027;28;20416;-73
2023/04/22 12:05:33;;;;;;;2.53;1.80;;;24.80;53.40;;;;;;5050365;28;20428;-72
2023/04/22 12:08:00;;;;;;;3.47;1.40;;;24.60;52.70;;;;;;5067534;28;20435;-72
2023/04/22 12:10:26;;;;;;;3.97;1.80;;;24.90;54.00;;;;;;5068491;28;20412;-72
2023/04/22 12:12:53;;;;;;;5.67;2.20;;;25.00;52.00;;;;;;5068370;28;21329;-72
2023/04/22 12:15:18;;;;;;;3.40;1.90;;;25.00;53.30;;;;;;5068392;28;20852;-73
2023/04/22 12:17:44;;;;;;;4.40;1.90;;;24.80;50.70;;;;;;5068355;28;20415;-73
2023/04/22 12:20:11;;;;;;;2.60;1.37;;;24.60;52.70;;;;;;5066797;28;20177;-73
2023/04/22 12:22:38;;;;;;;5.57;1.53;;;24.40;52.60;;;;;;5066797;28;20423;-72
2023/04/22 12:25:03;;;;;;;2.17;1.67;;;24.40;52.70;;;;;;5066638;28;20544;-72
2023/04/22 12:27:30;;;;;;;5.27;1.47;;;24.20;51.90;;;;;;5066917;28;20943;-72
2023/04/22 12:29:56;;;;;;;2.00;1.60;;;24.00;50.60;;;;;;5066890;28;20184;-73
2023/04/22 12:32:24;;;;;;;5.87;2.50;;;23.90;51.60;;;;;;5083628;28;20553;-73
2023/04/22 12:34:50;;;;;;;12.37;2.30;;;23.80;51.10;;;;;;5067310;28;20988;-73
2023/04/22 12:37:16;;;;;;;8.07;2.30;;;23.70;54.40;;;;;;5083696;28;20414;-73
2023/04/22 12:39:43;;;;;;;2.90;1.60;;;23.70;53.40;;;;;;5068107;28;20204;-72
2023/04/22 12:42:08;;;;;;;2.77;1.47;;;23.90;54.40;;;;;;5068156;28;20465;-72
2023/04/22 12:44:35;;;;;;;4.40;1.93;;;24.70;52.80;;;;;;5067998;28;20443;-72
2023/04/22 12:47:00;;;;;;;3.60;1.80;;;25.40;54.20;;;;;;5068129;28;20178;-72